createdAt,value
2019-03-05T00:01:51.875Z,25.15
2019-03-05T00:04:20.367Z,22.07
2019-03-05T00:06:48.842Z,20.70
2019-03-05T00:09:18.905Z,17.07
2019-03-05T00:11:47.384Z,22.35
2019-03-05T00:14:18.628Z,16.27
2019-03-05T00:16:46.104Z,17.12
2019-03-05T00:19:14.585Z,21.50
2019-03-05T00:21:44.059Z,41.83
2019-03-05T00:24:49.222Z,22.50
2019-03-05T00:27:17.710Z,21.97
2019-03-05T00:30:09.158Z,21.02
2019-03-05T00:32:37.637Z,20.55
2019-03-05T00:35:28.855Z,19.55
2019-03-05T00:38:06.379Z,20.15
2019-03-05T00:40:53.150Z,19.42
2019-03-05T00:43:24.762Z,20.17
2019-03-05T00:45:59.227Z,14.43
2019-03-05T00:48:54.496Z,18.73
2019-03-05T00:51:56.459Z,19.10
2019-03-05T00:54:56.773Z,16.10
2019-03-05T00:57:40.081Z,18.80
2019-03-05T01:00:20.921Z,18.10
2019-03-05T01:03:04.553Z,15.60
2019-03-05T01:05:47.610Z,19.62
2019-03-05T01:08:16.099Z,20.85
2019-03-05T01:10:44.582Z,20.55
2019-03-05T01:13:13.081Z,17.37
2019-03-05T01:15:41.866Z,18.98
2019-03-05T01:18:10.361Z,18.07
2019-03-05T01:20:38.846Z,20.20
2019-03-05T01:23:07.325Z,17.07
2019-03-05T01:25:35.812Z,13.55
2019-03-05T01:28:04.306Z,16.62
2019-03-05T01:30:55.462Z,13.25
2019-03-05T01:33:25.743Z,11.22
2019-03-05T01:36:01.447Z,11.90
2019-03-05T01:38:31.492Z,11.15
2019-03-05T01:41:01.584Z,15.08
2019-03-05T01:43:30.065Z,12.78
2019-03-05T01:45:58.546Z,16.20
2019-03-05T01:48:27.036Z,37.35
2019-03-05T01:50:55.531Z,155.93
2019-03-05T01:53:24.021Z,28.12
2019-03-05T01:55:52.509Z,14.68
2019-03-05T01:58:20.983Z,12.95
2019-03-05T02:00:49.504Z,12.88
2019-03-05T02:03:17.982Z,12.75
2019-03-05T02:05:46.757Z,16.12
2019-03-05T02:08:15.247Z,15.65
2019-03-05T02:10:43.732Z,19.12
2019-03-05T02:13:12.225Z,15.35
2019-03-05T02:15:40.702Z,15.60
2019-03-05T02:18:09.197Z,14.43
2019-03-05T02:20:37.687Z,21.17
2019-03-05T02:23:09.294Z,14.63
2019-03-05T02:25:46.752Z,10.93
2019-03-05T02:28:24.632Z,15.35
2019-03-05T02:31:05.147Z,14.83
2019-03-05T02:33:42.308Z,13.72
2019-03-05T02:36:33.399Z,16.17
2019-03-05T02:39:37.250Z,15.30
2019-03-05T02:42:31.315Z,13.55
2019-03-05T02:45:25.241Z,13.68
2019-03-05T02:48:02.919Z,13.40
2019-03-05T02:51:04.791Z,20.77
2019-03-05T02:53:53.299Z,14.10
2019-03-05T02:56:34.004Z,19.98
2019-03-05T02:59:01.651Z,16.40
2019-03-05T03:01:34.601Z,18.17
2019-03-05T03:04:04.659Z,16.32
2019-03-05T03:06:33.143Z,21.75
2019-03-05T03:09:11.333Z,16.48
2019-03-05T03:11:39.814Z,18.00
2019-03-05T03:14:08.295Z,16.73
2019-03-05T03:16:36.783Z,13.43
2019-03-05T03:19:05.271Z,18.45
2019-03-05T03:21:33.766Z,16.90
2019-03-05T03:24:02.238Z,20.77
2019-03-05T03:26:30.729Z,18.32
2019-03-05T03:28:59.211Z,22.42
2019-03-05T03:31:27.702Z,16.62
2019-03-05T03:33:56.194Z,18.02
2019-03-05T03:36:24.663Z,15.40
2019-03-05T03:38:53.153Z,15.88
2019-03-05T03:41:21.701Z,17.60
2019-03-05T03:43:50.189Z,18.70
2019-03-05T03:46:18.667Z,15.35
2019-03-05T03:48:47.154Z,15.63
2019-03-05T03:51:15.643Z,15.53
2019-03-05T03:53:44.124Z,16.20
2019-03-05T03:56:12.619Z,19.67
2019-03-05T03:58:41.098Z,23.98
2019-03-05T04:01:09.607Z,18.87
2019-03-05T04:03:38.086Z,17.92
2019-03-05T04:06:06.580Z,23.20
2019-03-05T04:08:35.052Z,17.80
2019-03-05T04:11:03.551Z,17.15
2019-03-05T04:13:32.089Z,29.63
2019-03-05T04:16:00.572Z,29.80
2019-03-05T04:18:29.059Z,14.05
2019-03-05T04:20:57.550Z,15.32
2019-03-05T04:23:26.025Z,14.75
2019-03-05T04:25:54.521Z,20.80
2019-03-05T04:28:23.018Z,17.95
2019-03-05T04:30:51.498Z,20.52
2019-03-05T04:33:19.988Z,17.75
2019-03-05T04:35:48.762Z,24.92
2019-03-05T04:38:17.266Z,35.98
2019-03-05T04:40:45.758Z,22.48
2019-03-05T04:43:14.239Z,25.05
2019-03-05T04:45:47.259Z,22.50
2019-03-05T04:48:15.736Z,18.40
2019-03-05T04:51:04.117Z,29.77
2019-03-05T04:53:32.612Z,21.82
2019-03-05T04:56:01.108Z,66.30
2019-03-05T04:58:29.602Z,67.67
2019-03-05T05:00:58.093Z,56.88
2019-03-05T05:03:26.587Z,115.52
2019-03-05T05:05:55.085Z,297.07
2019-03-05T05:08:23.614Z,164.22
2019-03-05T05:10:52.105Z,138.43
2019-03-05T05:13:20.589Z,90.45
2019-03-05T05:15:49.084Z,51.53
2019-03-05T05:18:17.573Z,68.40
2019-03-05T05:20:46.063Z,50.23
2019-03-05T05:23:14.561Z,41.20
2019-03-05T05:25:43.050Z,34.48
2019-03-05T05:28:11.555Z,26.95
2019-03-05T05:30:41.454Z,25.70
2019-03-05T05:33:09.932Z,29.55
2019-03-05T05:35:38.415Z,26.50
2019-03-05T05:38:06.919Z,77.58
2019-03-05T05:40:40.466Z,70.70
2019-03-05T05:43:14.363Z,22.87
2019-03-05T05:45:48.446Z,24.98
2019-03-05T05:48:16.949Z,25.82
2019-03-05T05:50:45.442Z,29.92
2019-03-05T05:53:13.934Z,44.63
2019-03-05T05:55:42.424Z,28.75
2019-03-05T05:58:10.960Z,31.02
2019-03-05T06:00:41.012Z,25.52
2019-03-05T06:03:09.506Z,27.30
2019-03-05T06:05:37.997Z,31.15
2019-03-05T06:08:06.504Z,29.20
2019-03-05T06:10:35.002Z,40.73
2019-03-05T06:13:03.514Z,59.20
2019-03-05T06:15:31.995Z,52.73
2019-03-05T06:18:00.499Z,50.92
2019-03-05T06:20:29.008Z,38.90
2019-03-05T06:22:57.503Z,27.77
2019-03-05T06:25:25.999Z,25.50
2019-03-05T06:27:54.491Z,29.55
2019-03-05T06:30:29.260Z,45.92
2019-03-05T06:32:57.748Z,40.58
2019-03-05T06:35:26.244Z,52.58
2019-03-05T06:37:54.735Z,34.03
2019-03-05T06:40:25.225Z,52.67
2019-03-05T06:42:54.732Z,49.73
2019-03-05T06:45:23.245Z,85.65
2019-03-05T06:47:51.728Z,35.70
2019-03-05T06:50:25.308Z,40.95
2019-03-05T06:52:53.828Z,36.68
2019-03-05T06:55:22.317Z,22.22
2019-03-05T06:57:50.814Z,24.37
2019-03-05T07:00:23.533Z,33.20
2019-03-05T07:02:52.026Z,34.53
2019-03-05T07:05:57.028Z,31.52
2019-03-05T07:08:25.551Z,28.07
2019-03-05T07:11:13.668Z,20.08
2019-03-05T07:13:42.358Z,33.38
2019-03-05T07:16:22.731Z,41.83
2019-03-05T07:18:54.029Z,19.48
2019-03-05T07:21:41.923Z,19.62
2019-03-05T07:24:28.467Z,23.42
2019-03-05T07:26:56.952Z,28.90
2019-03-05T07:29:25.443Z,22.95
2019-03-05T07:31:53.935Z,26.82
2019-03-05T07:34:24.002Z,27.85
2019-03-05T07:36:52.490Z,25.57
2019-03-05T07:39:23.190Z,22.25
2019-03-05T07:41:51.684Z,29.30
2019-03-05T07:44:20.179Z,20.40
2019-03-05T07:46:48.661Z,20.32
2019-03-05T07:49:17.161Z,18.98
2019-03-05T07:51:45.648Z,21.73
2019-03-05T07:54:14.146Z,24.50
2019-03-05T07:56:42.638Z,50.78
2019-03-05T07:59:11.131Z,23.32
2019-03-05T08:01:39.630Z,28.90
2019-03-05T08:04:08.117Z,24.45
2019-03-05T08:06:36.613Z,20.43
2019-03-05T08:09:33.221Z,24.52
2019-03-05T08:12:19.760Z,24.23
2019-03-05T08:27:57.953Z,25.60
2019-03-05T08:30:26.445Z,24.20
2019-03-05T08:32:54.975Z,29.75
2019-03-05T08:35:23.469Z,27.73
2019-03-05T08:37:52.005Z,37.85
2019-03-05T08:40:20.493Z,34.10
2019-03-05T08:42:48.997Z,34.25
2019-03-05T08:45:28.457Z,29.85
2019-03-05T08:47:47.707Z,22.98
2019-03-05T08:50:16.306Z,21.40
2019-03-05T08:52:44.803Z,24.98
2019-03-05T08:55:13.439Z,26.35
2019-03-05T08:57:41.936Z,31.33
2019-03-05T09:00:18.239Z,24.05
2019-03-05T09:02:49.044Z,20.30
2019-03-05T09:05:20.059Z,19.67
2019-03-05T09:07:48.647Z,22.55
2019-03-05T09:10:19.034Z,19.67
2019-03-05T09:12:47.527Z,27.58
2019-03-05T09:15:19.909Z,25.20
2019-03-05T09:17:48.404Z,25.77
2019-03-05T09:20:18.098Z,23.00
2019-03-05T09:22:46.597Z,36.70
2019-03-05T09:25:16.087Z,36.83
2019-03-05T09:27:44.592Z,25.27
2019-03-05T09:30:20.804Z,20.85
2019-03-05T09:32:49.279Z,24.47
2019-03-05T09:35:17.871Z,28.62
2019-03-05T09:37:46.566Z,26.30
2019-03-05T09:40:28.531Z,12.90
2019-03-05T09:42:57.133Z,130.18
2019-03-05T09:45:28.059Z,22.20
2019-03-05T09:47:56.039Z,22.45
2019-03-05T09:50:24.528Z,12.98
2019-03-05T09:52:55.172Z,11.25
2019-03-05T09:55:26.313Z,23.50
2019-03-05T09:58:07.094Z,48.42
2019-03-05T10:00:26.816Z,29.40
2019-03-05T10:02:55.298Z,14.55
2019-03-05T10:05:23.798Z,7.58
2019-03-05T10:07:52.307Z,14.18
2019-03-05T10:10:25.761Z,14.05
2019-03-05T10:12:58.805Z,16.67
2019-03-05T10:15:25.310Z,17.98
2019-03-05T10:17:53.902Z,21.45
2019-03-05T10:20:30.731Z,15.43
2019-03-05T10:22:59.222Z,15.13
2019-03-05T10:25:28.218Z,10.75
2019-03-05T10:27:57.015Z,13.48
2019-03-05T10:30:31.598Z,15.15
2019-03-05T10:33:01.857Z,13.85
2019-03-05T10:35:30.349Z,27.15
2019-03-05T10:38:00.229Z,17.32
2019-03-05T10:40:31.680Z,15.63
2019-03-05T10:43:08.423Z,14.47
2019-03-05T10:45:31.083Z,14.23
2019-03-05T10:47:59.578Z,14.55
2019-03-05T10:50:31.732Z,11.20
2019-03-05T10:53:00.220Z,15.93
2019-03-05T10:55:28.798Z,20.00
2019-03-05T10:57:57.299Z,14.43
2019-03-05T11:00:40.452Z,10.18
2019-03-05T11:03:09.229Z,10.28
2019-03-05T11:05:38.321Z,15.63
2019-03-05T11:08:06.801Z,9.43
2019-03-05T11:10:35.529Z,21.75
2019-03-05T11:13:04.014Z,14.28
2019-03-05T11:15:36.885Z,16.48
2019-03-05T11:18:08.785Z,13.60
2019-03-05T11:20:37.785Z,10.75
2019-03-05T11:23:07.170Z,13.08
2019-03-05T11:25:35.662Z,26.40
2019-03-05T11:28:04.147Z,16.12
2019-03-05T11:30:36.353Z,13.48
2019-03-05T11:33:05.194Z,18.73
2019-03-05T11:35:34.379Z,8.95
2019-03-05T11:38:02.861Z,13.88
2019-03-05T11:40:31.454Z,13.18
2019-03-05T11:43:05.975Z,15.60
2019-03-05T11:45:34.562Z,10.32
2019-03-05T11:48:03.054Z,14.63
2019-03-05T11:50:31.543Z,16.62
2019-03-05T11:53:00.039Z,9.38
2019-03-05T11:55:29.746Z,17.65
2019-03-05T11:57:58.225Z,13.10
2019-03-05T12:00:45.276Z,23.00
2019-03-05T12:03:13.766Z,18.55
2019-03-05T12:05:42.258Z,23.10
2019-03-05T12:08:10.745Z,17.15
2019-03-05T12:10:39.240Z,16.20
2019-03-05T12:13:07.929Z,18.20
2019-03-05T12:15:41.628Z,27.95
2019-03-05T12:18:10.118Z,68.75
2019-03-05T12:20:38.604Z,11.68
2019-03-05T12:23:10.319Z,19.15
2019-03-05T12:25:39.942Z,14.03
2019-03-05T12:28:10.681Z,63.48
2019-03-05T12:30:37.776Z,18.77
2019-03-05T12:33:06.683Z,17.07
2019-03-05T12:35:35.671Z,40.48
2019-03-05T12:38:04.193Z,50.33
2019-03-05T12:40:32.688Z,19.77
2019-03-05T12:43:01.254Z,16.82
2019-03-05T12:45:29.750Z,25.08
2019-03-05T12:47:58.225Z,21.60
2019-03-05T12:50:28.630Z,26.60
2019-03-05T12:52:57.327Z,25.25
2019-03-05T12:55:25.958Z,15.55
2019-03-05T12:57:54.450Z,43.83
2019-03-05T13:00:30.827Z,12.90
2019-03-05T13:02:59.316Z,14.28
2019-03-05T13:05:27.804Z,16.17
2019-03-05T13:07:57.677Z,11.12
2019-03-05T13:10:27.262Z,16.73
2019-03-05T13:12:55.801Z,16.55
2019-03-05T13:15:37.856Z,18.32
2019-03-05T13:18:06.360Z,39.98
2019-03-05T13:20:34.840Z,11.57
2019-03-05T13:23:08.705Z,15.32
2019-03-05T13:25:33.726Z,11.73
2019-03-05T13:28:04.043Z,14.10
2019-03-05T13:30:32.927Z,32.75
2019-03-05T13:33:01.412Z,14.68
2019-03-05T13:35:31.753Z,15.28
2019-03-05T13:38:06.910Z,20.17
2019-03-05T13:40:34.221Z,17.20
2019-03-05T13:43:03.419Z,21.15
2019-03-05T13:45:31.905Z,21.68
2019-03-05T13:48:03.521Z,22.45
2019-03-05T13:50:51.958Z,16.95
2019-03-05T13:53:35.875Z,19.98
2019-03-05T13:56:12.055Z,18.85
2019-03-05T13:59:16.950Z,34.03
2019-03-05T14:01:45.653Z,29.05
2019-03-05T14:04:19.891Z,25.52
2019-03-05T14:07:03.516Z,12.28
2019-03-05T14:09:30.924Z,18.52
2019-03-05T14:11:59.429Z,23.95
2019-03-05T14:14:28.242Z,22.58
2019-03-05T14:16:58.487Z,31.77
2019-03-05T14:19:27.022Z,41.20
2019-03-05T14:21:55.472Z,25.27
2019-03-05T14:24:24.010Z,16.52
2019-03-05T14:26:52.502Z,30.15
2019-03-05T14:29:21.012Z,29.67
2019-03-05T14:31:51.075Z,44.90
2019-03-05T14:34:19.607Z,45.88
2019-03-05T14:36:48.090Z,62.03
2019-03-05T14:39:26.566Z,53.42
2019-03-05T14:41:55.075Z,49.23
2019-03-05T14:44:23.606Z,37.03
2019-03-05T14:46:57.026Z,40.40
2019-03-05T14:49:25.501Z,34.98
2019-03-05T14:51:53.978Z,39.25
2019-03-05T14:54:22.498Z,43.87
2019-03-05T14:56:51.010Z,59.75
2019-03-05T14:59:19.490Z,77.00
2019-03-05T15:01:48.006Z,59.85
2019-03-05T15:04:16.499Z,65.65
2019-03-05T15:06:44.989Z,95.35
2019-03-05T15:09:13.519Z,99.67
2019-03-05T15:11:41.975Z,94.92
2019-03-05T15:14:10.538Z,143.75
2019-03-05T15:16:38.996Z,116.37
2019-03-05T15:19:07.514Z,157.62
2019-03-05T15:21:36.009Z,81.95
2019-03-05T15:24:04.486Z,72.20
2019-03-05T15:26:32.965Z,79.35
2019-03-05T15:29:01.463Z,108.60
2019-03-05T15:31:29.962Z,113.88
2019-03-05T15:33:58.488Z,87.15
2019-03-05T15:36:27.002Z,60.75
2019-03-05T15:38:55.562Z,47.70
2019-03-05T15:41:24.077Z,81.20
2019-03-05T15:43:52.552Z,105.00
2019-03-05T15:46:21.060Z,108.07
2019-03-05T15:48:49.550Z,73.35
2019-03-05T15:51:18.044Z,93.60
2019-03-05T15:56:15.043Z,53.00
2019-03-05T15:58:43.555Z,30.00
2019-03-05T16:01:18.733Z,27.13
2019-03-05T16:03:42.274Z,25.92
2019-03-05T16:06:10.769Z,21.90
2019-03-05T16:08:39.251Z,24.27
2019-03-05T16:11:07.798Z,28.23
2019-03-05T16:13:36.233Z,25.50
2019-03-05T16:16:04.737Z,32.83
2019-03-05T16:18:33.241Z,33.28
2019-03-05T16:21:02.576Z,37.25
2019-03-05T16:23:31.972Z,79.20
2019-03-05T16:26:00.461Z,61.73
2019-03-05T16:28:28.957Z,72.87
2019-03-05T16:31:11.319Z,51.28
2019-03-05T16:33:46.365Z,34.83
2019-03-05T16:36:37.598Z,41.10
2019-03-05T16:39:10.568Z,34.55
2019-03-05T16:41:46.892Z,39.13
2019-03-05T16:44:28.868Z,46.77
2019-03-05T16:46:58.933Z,51.30
2019-03-05T16:49:40.963Z,23.98
2019-03-05T16:52:13.774Z,30.50
2019-03-05T16:54:58.896Z,32.63
2019-03-05T16:57:34.959Z,47.48
2019-03-05T17:00:21.840Z,31.40
2019-03-05T17:02:57.677Z,37.45
2019-03-05T17:05:42.852Z,34.13
2019-03-05T17:08:12.929Z,44.40
2019-03-05T17:10:42.990Z,47.30
2019-03-05T17:13:11.606Z,58.50
2019-03-05T17:15:40.058Z,48.48
2019-03-05T17:18:08.558Z,45.25
2019-03-05T17:20:37.049Z,40.30
2019-03-05T17:23:06.051Z,40.25
2019-03-05T17:25:34.534Z,62.95
2019-03-05T17:28:03.035Z,35.13
2019-03-05T17:30:31.523Z,41.98
2019-03-05T17:33:00.019Z,32.90
2019-03-05T17:35:28.508Z,35.25
2019-03-05T17:37:57.009Z,30.55
2019-03-05T17:40:25.505Z,33.28
2019-03-05T17:42:54.062Z,35.15
2019-03-05T17:45:25.935Z,39.70
2019-03-05T17:47:54.603Z,33.33
2019-03-05T17:50:23.091Z,34.98
2019-03-05T17:52:51.621Z,32.80
2019-03-05T17:55:25.271Z,46.58
2019-03-05T17:57:52.545Z,42.27
2019-03-05T18:00:26.289Z,40.50
2019-03-05T18:02:54.784Z,37.20
2019-03-05T18:05:23.284Z,48.95
2019-03-05T18:07:51.779Z,58.50
2019-03-05T18:10:20.290Z,25.92
2019-03-05T18:12:48.781Z,243.97
2019-03-05T18:15:17.469Z,60.73
2019-03-05T18:17:45.963Z,30.08
2019-03-05T18:20:17.313Z,48.33
2019-03-05T18:22:46.192Z,77.62
2019-03-05T18:25:15.577Z,47.08
2019-03-05T18:27:44.083Z,51.65
2019-03-05T18:30:23.942Z,56.80
2019-03-05T18:32:52.433Z,44.67
2019-03-05T18:35:20.930Z,41.08
2019-03-05T18:37:49.427Z,31.55
2019-03-05T18:40:19.973Z,31.82
2019-03-05T18:42:48.465Z,39.10
2019-03-05T18:45:20.069Z,37.83
2019-03-05T18:47:48.591Z,25.40
2019-03-05T18:50:18.585Z,32.28
2019-03-05T18:52:47.489Z,30.15
2019-03-05T18:55:17.987Z,29.75
2019-03-05T18:57:46.658Z,25.08
2019-03-05T19:00:20.715Z,19.17
2019-03-05T19:02:49.413Z,23.15
2019-03-05T19:05:17.904Z,19.20
2019-03-05T19:07:47.018Z,15.10
2019-03-05T19:10:20.619Z,17.10
2019-03-05T19:12:49.111Z,21.33
2019-03-05T19:15:19.959Z,21.05
2019-03-05T19:17:48.449Z,16.25
2019-03-05T19:20:28.075Z,26.62
2019-03-05T19:22:56.577Z,20.37
2019-03-05T19:25:36.537Z,14.75
2019-03-05T19:28:05.242Z,24.95
2019-03-05T19:30:35.126Z,22.87
2019-03-05T19:33:03.634Z,29.45
2019-03-05T19:35:32.115Z,22.52
2019-03-05T19:38:00.609Z,20.55
2019-03-05T19:40:35.311Z,23.65
2019-03-05T19:43:04.009Z,29.82
2019-03-05T19:45:32.496Z,27.93
2019-03-05T19:48:00.996Z,32.78
2019-03-05T19:50:29.492Z,25.75
2019-03-05T19:52:58.266Z,21.52
2019-03-05T19:55:27.873Z,22.17
2019-03-05T19:58:09.387Z,16.85
2019-03-05T20:00:41.257Z,19.45
2019-03-05T20:03:09.745Z,18.02
2019-03-05T20:05:40.121Z,19.95
2019-03-05T20:08:08.499Z,21.85
2019-03-05T20:10:38.288Z,23.32
2019-03-05T20:13:06.789Z,21.07
2019-03-05T20:15:35.325Z,26.25
2019-03-05T20:18:03.814Z,27.77
2019-03-05T20:20:32.305Z,26.70
2019-03-05T20:23:00.798Z,34.15
2019-03-05T20:25:30.967Z,28.55
2019-03-05T20:27:59.446Z,28.38
2019-03-05T20:30:27.942Z,23.22
2019-03-05T20:32:56.433Z,26.10
2019-03-05T20:35:24.931Z,20.25
2019-03-05T20:37:53.428Z,24.85
2019-03-05T20:40:24.477Z,21.85
2019-03-05T20:42:52.979Z,23.07
2019-03-05T20:45:33.580Z,23.35
2019-03-05T20:48:02.072Z,23.77
2019-03-05T20:50:30.745Z,23.98
2019-03-05T20:52:59.301Z,26.68
2019-03-05T20:55:28.000Z,22.58
2019-03-05T20:57:56.489Z,29.05
2019-03-05T21:00:28.114Z,26.93
2019-03-05T21:02:58.680Z,28.75
2019-03-05T21:05:32.743Z,27.07
2019-03-05T21:08:01.238Z,28.85
2019-03-05T21:10:29.720Z,21.17
2019-03-05T21:12:58.213Z,19.17
2019-03-05T21:15:26.882Z,34.65
2019-03-05T21:17:55.781Z,38.23
2019-03-05T21:20:24.311Z,28.70
2019-03-05T21:22:52.820Z,22.62
2019-03-05T21:25:21.505Z,27.52
2019-03-05T21:27:50.039Z,28.45
2019-03-05T21:30:20.891Z,32.03
2019-03-05T21:32:49.396Z,31.62
2019-03-05T21:35:17.882Z,20.08
2019-03-05T21:37:46.379Z,20.20
2019-03-05T21:40:24.065Z,22.32
2019-03-05T21:42:52.859Z,22.55
2019-03-05T21:45:30.236Z,22.95
2019-03-05T21:47:58.733Z,21.68
2019-03-05T21:50:27.217Z,22.75
2019-03-05T21:52:55.712Z,17.45
2019-03-05T21:55:24.202Z,19.25
2019-03-05T21:57:52.700Z,22.17
2019-03-05T22:00:36.246Z,20.85
2019-03-05T22:03:05.342Z,20.25
2019-03-05T22:05:33.827Z,19.62
2019-03-05T22:08:02.313Z,18.20
2019-03-05T22:10:30.814Z,25.82
2019-03-05T22:12:59.317Z,32.15
2019-03-05T22:15:35.096Z,29.90
2019-03-05T22:18:03.594Z,25.95
2019-03-05T22:20:32.097Z,26.33
2019-03-05T22:23:00.777Z,23.92
2019-03-05T22:25:29.405Z,21.00
2019-03-05T22:27:58.048Z,26.93
2019-03-05T22:30:36.770Z,20.95
2019-03-05T22:33:05.257Z,21.30
2019-03-05T22:35:33.764Z,20.57
2019-03-05T22:38:02.252Z,41.15
2019-03-05T22:40:30.760Z,49.93
2019-03-05T22:42:59.257Z,40.67
2019-03-05T22:45:29.153Z,45.78
2019-03-05T22:47:57.650Z,34.58
2019-03-05T22:50:26.149Z,28.98
2019-03-05T22:52:54.641Z,24.10
2019-03-05T22:55:23.136Z,26.30
2019-03-05T22:57:51.626Z,26.52
2019-03-05T23:00:36.513Z,25.55
2019-03-05T23:03:06.602Z,23.73
2019-03-05T23:05:35.098Z,22.52
2019-03-05T23:08:03.865Z,21.57
2019-03-05T23:10:32.363Z,19.15
2019-03-05T23:13:00.867Z,20.15
2019-03-05T23:15:29.367Z,19.00
2019-03-05T23:17:57.854Z,18.50
2019-03-05T23:20:26.590Z,15.93
2019-03-05T23:22:55.081Z,17.67
2019-03-05T23:25:23.680Z,36.17
2019-03-05T23:27:52.172Z,28.20
2019-03-05T23:30:21.771Z,16.45
2019-03-05T23:32:54.540Z,19.12
2019-03-05T23:35:23.033Z,20.68
2019-03-05T23:37:51.522Z,29.98
2019-03-05T23:40:20.023Z,22.22
2019-03-05T23:42:48.519Z,17.73
2019-03-05T23:45:20.507Z,23.73
2019-03-05T23:47:49.003Z,30.27
2019-03-05T23:50:18.013Z,32.35
2019-03-05T23:52:46.505Z,50.17
2019-03-05T23:55:14.985Z,18.32
2019-03-05T23:57:43.863Z,21.80
